sensor_id;sensor_type;location;lat;lon;timestamp;P1;durP1;ratioP1;P2;durP2;ratioP2
2416;SDS011;1219;48.736;9.330;2023-02-08T00:01:56;13.50;;;9.33;;
2416;SDS011;1219;48.736;9.330;2023-02-08T00:04:22;12.40;;;8.17;;
2416;SDS011;1219;48.736;9.330;2023-02-08T00:06:48;11.93;;;9.20;;
2416;SDS011;1219;48.736;9.330;2023-02-08T00:09:14;9.23;;;8.00;;
2416;SDS011;1219;48.736;9.330;2023-02-08T00:11:40;9.93;;;7.87;;
2416;SDS011;1219;48.736;9.330;2023-02-08T00:14:06;9.20;;;8.20;;
2416;SDS011;1219;48.736;9.330;2023-02-08T00:16:33;11.17;;;7.43;;
2416;SDS011;1219;48.736;9.330;2023-02-08T00:18:59;11.00;;;8.13;;
2416;SDS011;1219;48.736;9.330;2023-02-08T00:21:25;15.50;;;8.60;;
2416;SDS011;1219;48.736;9.330;2023-02-08T00:23:50;8.17;;;6.50;;
2416;SDS011;1219;48.736;9.330;2023-02-08T00:26:16;9.57;;;7.43;;
2416;SDS011;1219;48.736;9.330;2023-02-08T00:28:42;10.63;;;8.17;;
2416;SDS011;1219;48.736;9.330;2023-02-08T00:31:09;8.87;;;6.83;;
2416;SDS011;1219;48.736;9.330;2023-02-08T00:33:34;9.17;;;8.17;;
2416;SDS011;1219;48.736;9.330;2023-02-08T00:36:01;13.10;;;7.90;;
2416;SDS011;1219;48.736;9.330;2023-02-08T00:38:27;11.77;;;7.70;;
2416;SDS011;1219;48.736;9.330;2023-02-08T00:40:53;9.90;;;8.50;;
2416;SDS011;1219;48.736;9.330;2023-02-08T00:43:19;11.67;;;9.20;;
2416;SDS011;1219;48.736;9.330;2023-02-08T00:45:46;9.43;;;7.00;;
2416;SDS011;1219;48.736;9.330;2023-02-08T00:48:11;12.97;;;8.00;;
2416;SDS011;1219;48.736;9.330;2023-02-08T00:50:37;10.73;;;7.60;;
2416;SDS011;1219;48.736;9.330;2023-02-08T00:53:03;13.10;;;6.77;;
2416;SDS011;1219;48.736;9.330;2023-02-08T00:55:29;10.03;;;8.00;;
2416;SDS011;1219;48.736;9.330;2023-02-08T00:57:55;9.67;;;7.20;;
2416;SDS011;1219;48.736;9.330;2023-02-08T01:00:21;12.10;;;7.50;;
2416;SDS011;1219;48.736;9.330;2023-02-08T01:02:47;10.13;;;8.00;;
2416;SDS011;1219;48.736;9.330;2023-02-08T01:05:13;7.57;;;6.77;;
2416;SDS011;1219;48.736;9.330;2023-02-08T01:07:39;13.70;;;7.23;;
2416;SDS011;1219;48.736;9.330;2023-02-08T01:10:05;7.83;;;7.03;;
2416;SDS011;1219;48.736;9.330;2023-02-08T01:12:32;8.80;;;6.80;;
2416;SDS011;1219;48.736;9.330;2023-02-08T01:14:57;11.33;;;8.07;;
2416;SDS011;1219;48.736;9.330;2023-02-08T01:17:24;8.60;;;7.13;;
2416;SDS011;1219;48.736;9.330;2023-02-08T01:19:50;7.90;;;6.63;;
2416;SDS011;1219;48.736;9.330;2023-02-08T01:22:15;11.37;;;8.00;;
2416;SDS011;1219;48.736;9.330;2023-02-08T01:24:41;11.47;;;7.63;;
2416;SDS011;1219;48.736;9.330;2023-02-08T01:27:07;8.50;;;7.30;;
2416;SDS011;1219;48.736;9.330;2023-02-08T01:29:33;10.87;;;7.40;;
2416;SDS011;1219;48.736;9.330;2023-02-08T01:31:59;11.10;;;7.23;;
2416;SDS011;1219;48.736;9.330;2023-02-08T01:34:25;10.70;;;8.77;;
2416;SDS011;1219;48.736;9.330;2023-02-08T01:36:51;7.93;;;6.90;;
2416;SDS011;1219;48.736;9.330;2023-02-08T01:39:17;10.50;;;7.17;;
2416;SDS011;1219;48.736;9.330;2023-02-08T01:41:43;10.70;;;8.40;;
2416;SDS011;1219;48.736;9.330;2023-02-08T01:46:46;9.57;;;7.27;;
2416;SDS011;1219;48.736;9.330;2023-02-08T01:51:47;8.37;;;6.40;;
2416;SDS011;1219;48.736;9.330;2023-02-08T01:54:15;10.73;;;7.57;;
2416;SDS011;1219;48.736;9.330;2023-02-08T01:56:42;10.17;;;7.10;;
2416;SDS011;1219;48.736;9.330;2023-02-08T01:59:13;10.00;;;7.57;;
2416;SDS011;1219;48.736;9.330;2023-02-08T02:01:41;9.00;;;6.47;;
2416;SDS011;1219;48.736;9.330;2023-02-08T02:04:09;11.83;;;7.10;;
2416;SDS011;1219;48.736;9.330;2023-02-08T02:06:37;9.27;;;6.93;;
2416;SDS011;1219;48.736;9.330;2023-02-08T02:11:46;7.07;;;5.80;;
2416;SDS011;1219;48.736;9.330;2023-02-08T02:14:12;9.07;;;7.00;;
2416;SDS011;1219;48.736;9.330;2023-02-08T02:16:38;11.43;;;6.70;;
2416;SDS011;1219;48.736;9.330;2023-02-08T02:19:04;8.10;;;6.27;;
2416;SDS011;1219;48.736;9.330;2023-02-08T02:34:14;10.50;;;8.00;;
2416;SDS011;1219;48.736;9.330;2023-02-08T02:39:16;10.80;;;7.67;;
2416;SDS011;1219;48.736;9.330;2023-02-08T02:44:45;7.83;;;7.03;;
2416;SDS011;1219;48.736;9.330;2023-02-08T02:48:01;11.60;;;7.40;;
2416;SDS011;1219;48.736;9.330;2023-02-08T02:50:01;8.73;;;7.00;;
2416;SDS011;1219;48.736;9.330;2023-02-08T02:52:31;8.03;;;7.23;;
2416;SDS011;1219;48.736;9.330;2023-02-08T02:55:02;8.77;;;7.47;;
2416;SDS011;1219;48.736;9.330;2023-02-08T02:57:30;8.27;;;7.57;;
2416;SDS011;1219;48.736;9.330;2023-02-08T02:59:57;9.40;;;6.90;;
2416;SDS011;1219;48.736;9.330;2023-02-08T03:02:24;10.50;;;7.23;;
2416;SDS011;1219;48.736;9.330;2023-02-08T03:04:52;8.00;;;6.57;;
2416;SDS011;1219;48.736;9.330;2023-02-08T03:12:33;10.07;;;6.83;;
2416;SDS011;1219;48.736;9.330;2023-02-08T03:20:20;10.57;;;7.60;;
2416;SDS011;1219;48.736;9.330;2023-02-08T03:22:57;10.83;;;7.70;;
2416;SDS011;1219;48.736;9.330;2023-02-08T03:28:07;10.10;;;8.40;;
2416;SDS011;1219;48.736;9.330;2023-02-08T03:30:38;9.83;;;7.23;;
2416;SDS011;1219;48.736;9.330;2023-02-08T03:33:17;13.63;;;9.43;;
2416;SDS011;1219;48.736;9.330;2023-02-08T03:35:47;11.53;;;8.53;;
2416;SDS011;1219;48.736;9.330;2023-02-08T03:38:16;7.80;;;6.70;;
2416;SDS011;1219;48.736;9.330;2023-02-08T03:40:45;11.57;;;8.20;;
2416;SDS011;1219;48.736;9.330;2023-02-08T03:43:17;13.20;;;8.43;;
2416;SDS011;1219;48.736;9.330;2023-02-08T03:45:52;10.80;;;7.23;;
2416;SDS011;1219;48.736;9.330;2023-02-08T03:48:19;8.50;;;6.90;;
2416;SDS011;1219;48.736;9.330;2023-02-08T03:50:47;11.63;;;7.60;;
2416;SDS011;1219;48.736;9.330;2023-02-08T03:53:14;9.40;;;6.87;;
2416;SDS011;1219;48.736;9.330;2023-02-08T03:55:41;10.60;;;8.00;;
2416;SDS011;1219;48.736;9.330;2023-02-08T04:00:37;10.70;;;7.93;;
2416;SDS011;1219;48.736;9.330;2023-02-08T04:03:05;9.43;;;7.97;;
2416;SDS011;1219;48.736;9.330;2023-02-08T04:05:33;10.57;;;8.50;;
2416;SDS011;1219;48.736;9.330;2023-02-08T04:07:59;17.50;;;9.07;;
2416;SDS011;1219;48.736;9.330;2023-02-08T04:10:25;12.67;;;8.33;;
2416;SDS011;1219;48.736;9.330;2023-02-08T04:12:51;14.73;;;9.57;;
2416;SDS011;1219;48.736;9.330;2023-02-08T04:15:17;11.87;;;10.63;;
2416;SDS011;1219;48.736;9.330;2023-02-08T04:17:43;9.33;;;8.30;;
2416;SDS011;1219;48.736;9.330;2023-02-08T04:20:09;13.00;;;9.30;;
2416;SDS011;1219;48.736;9.330;2023-02-08T04:22:35;12.10;;;8.63;;
2416;SDS011;1219;48.736;9.330;2023-02-08T04:25:01;14.93;;;9.67;;
2416;SDS011;1219;48.736;9.330;2023-02-08T04:27:27;11.60;;;9.33;;
2416;SDS011;1219;48.736;9.330;2023-02-08T04:29:53;9.67;;;7.77;;
2416;SDS011;1219;48.736;9.330;2023-02-08T04:32:19;10.47;;;8.60;;
2416;SDS011;1219;48.736;9.330;2023-02-08T04:34:45;9.53;;;8.13;;
2416;SDS011;1219;48.736;9.330;2023-02-08T04:37:11;12.63;;;9.10;;
2416;SDS011;1219;48.736;9.330;2023-02-08T04:39:37;13.50;;;9.27;;
2416;SDS011;1219;48.736;9.330;2023-02-08T04:42:03;10.70;;;8.50;;
2416;SDS011;1219;48.736;9.330;2023-02-08T04:44:29;13.30;;;9.00;;
2416;SDS011;1219;48.736;9.330;2023-02-08T04:46:56;9.87;;;7.60;;
2416;SDS011;1219;48.736;9.330;2023-02-08T04:49:22;12.47;;;8.43;;
2416;SDS011;1219;48.736;9.330;2023-02-08T04:51:48;13.53;;;9.50;;
2416;SDS011;1219;48.736;9.330;2023-02-08T04:54:14;10.03;;;8.77;;
2416;SDS011;1219;48.736;9.330;2023-02-08T04:56:40;13.70;;;9.33;;
2416;SDS011;1219;48.736;9.330;2023-02-08T04:59:06;12.40;;;9.20;;
2416;SDS011;1219;48.736;9.330;2023-02-08T05:01:32;11.90;;;10.03;;
2416;SDS011;1219;48.736;9.330;2023-02-08T05:03:58;12.83;;;8.90;;
2416;SDS011;1219;48.736;9.330;2023-02-08T05:06:24;14.60;;;9.57;;
2416;SDS011;1219;48.736;9.330;2023-02-08T05:08:50;14.03;;;9.90;;
2416;SDS011;1219;48.736;9.330;2023-02-08T05:11:20;13.17;;;10.13;;
2416;SDS011;1219;48.736;9.330;2023-02-08T05:13:47;11.43;;;8.40;;
2416;SDS011;1219;48.736;9.330;2023-02-08T05:16:13;11.67;;;9.33;;
2416;SDS011;1219;48.736;9.330;2023-02-08T05:18:39;10.57;;;8.10;;
2416;SDS011;1219;48.736;9.330;2023-02-08T05:21:05;15.00;;;9.30;;
2416;SDS011;1219;48.736;9.330;2023-02-08T05:23:31;11.23;;;8.77;;
2416;SDS011;1219;48.736;9.330;2023-02-08T05:25:57;12.37;;;9.10;;
2416;SDS011;1219;48.736;9.330;2023-02-08T05:28:23;13.30;;;9.30;;
2416;SDS011;1219;48.736;9.330;2023-02-08T05:30:49;12.20;;;9.73;;
2416;SDS011;1219;48.736;9.330;2023-02-08T05:33:15;14.97;;;9.37;;
2416;SDS011;1219;48.736;9.330;2023-02-08T05:35:43;12.07;;;8.70;;
2416;SDS011;1219;48.736;9.330;2023-02-08T05:38:09;12.83;;;8.90;;
2416;SDS011;1219;48.736;9.330;2023-02-08T05:40:35;13.07;;;9.20;;
2416;SDS011;1219;48.736;9.330;2023-02-08T05:43:01;16.90;;;10.40;;
2416;SDS011;1219;48.736;9.330;2023-02-08T05:45:27;13.93;;;10.50;;
2416;SDS011;1219;48.736;9.330;2023-02-08T05:47:53;15.23;;;10.10;;
2416;SDS011;1219;48.736;9.330;2023-02-08T05:50:19;17.83;;;11.40;;
2416;SDS011;1219;48.736;9.330;2023-02-08T05:52:45;15.70;;;11.43;;
2416;SDS011;1219;48.736;9.330;2023-02-08T05:55:11;22.30;;;11.83;;
2416;SDS011;1219;48.736;9.330;2023-02-08T05:57:37;15.17;;;10.43;;
2416;SDS011;1219;48.736;9.330;2023-02-08T06:00:03;15.77;;;10.57;;
2416;SDS011;1219;48.736;9.330;2023-02-08T06:02:30;18.33;;;12.33;;
2416;SDS011;1219;48.736;9.330;2023-02-08T06:04:56;18.50;;;10.90;;
2416;SDS011;1219;48.736;9.330;2023-02-08T06:07:22;17.40;;;9.50;;
2416;SDS011;1219;48.736;9.330;2023-02-08T06:09:48;15.97;;;10.77;;
2416;SDS011;1219;48.736;9.330;2023-02-08T06:12:14;14.50;;;9.80;;
2416;SDS011;1219;48.736;9.330;2023-02-08T06:14:40;15.00;;;9.37;;
2416;SDS011;1219;48.736;9.330;2023-02-08T06:17:06;15.30;;;10.00;;
2416;SDS011;1219;48.736;9.330;2023-02-08T06:19:32;18.83;;;10.20;;
2416;SDS011;1219;48.736;9.330;2023-02-08T06:21:58;16.07;;;10.87;;
2416;SDS011;1219;48.736;9.330;2023-02-08T06:24:24;16.47;;;10.80;;
2416;SDS011;1219;48.736;9.330;2023-02-08T06:26:50;10.27;;;9.17;;
2416;SDS011;1219;48.736;9.330;2023-02-08T06:29:16;16.13;;;11.40;;
2416;SDS011;1219;48.736;9.330;2023-02-08T06:31:42;15.70;;;9.43;;
2416;SDS011;1219;48.736;9.330;2023-02-08T06:34:08;13.03;;;10.00;;
2416;SDS011;1219;48.736;9.330;2023-02-08T06:36:34;14.50;;;9.23;;
2416;SDS011;1219;48.736;9.330;2023-02-08T06:39:00;14.67;;;10.37;;
2416;SDS011;1219;48.736;9.330;2023-02-08T06:41:26;15.13;;;10.27;;
2416;SDS011;1219;48.736;9.330;2023-02-08T06:43:52;13.93;;;10.13;;
2416;SDS011;1219;48.736;9.330;2023-02-08T06:46:17;12.70;;;9.63;;
2416;SDS011;1219;48.736;9.330;2023-02-08T06:48:43;12.70;;;9.13;;
2416;SDS011;1219;48.736;9.330;2023-02-08T06:51:09;13.17;;;9.97;;
2416;SDS011;1219;48.736;9.330;2023-02-08T06:53:35;13.17;;;9.27;;
2416;SDS011;1219;48.736;9.330;2023-02-08T06:56:01;10.77;;;9.00;;
2416;SDS011;1219;48.736;9.330;2023-02-08T06:58:27;13.57;;;9.53;;
2416;SDS011;1219;48.736;9.330;2023-02-08T07:00:53;13.90;;;11.10;;
2416;SDS011;1219;48.736;9.330;2023-02-08T07:03:19;11.77;;;9.90;;
2416;SDS011;1219;48.736;9.330;2023-02-08T07:05:46;14.00;;;10.60;;
2416;SDS011;1219;48.736;9.330;2023-02-08T07:08:12;13.17;;;9.23;;
2416;SDS011;1219;48.736;9.330;2023-02-08T07:10:38;17.57;;;10.60;;
2416;SDS011;1219;48.736;9.330;2023-02-08T07:13:04;8.97;;;8.17;;
2416;SDS011;1219;48.736;9.330;2023-02-08T07:15:31;19.03;;;11.17;;
2416;SDS011;1219;48.736;9.330;2023-02-08T07:17:57;18.03;;;11.50;;
2416;SDS011;1219;48.736;9.330;2023-02-08T07:20:23;13.70;;;11.10;;
2416;SDS011;1219;48.736;9.330;2023-02-08T07:22:49;15.77;;;12.07;;
2416;SDS011;1219;48.736;9.330;2023-02-08T07:25:15;20.90;;;12.30;;
2416;SDS011;1219;48.736;9.330;2023-02-08T07:27:41;14.40;;;11.37;;
2416;SDS011;1219;48.736;9.330;2023-02-08T07:30:07;18.43;;;11.73;;
2416;SDS011;1219;48.736;9.330;2023-02-08T07:32:34;16.00;;;12.17;;
2416;SDS011;1219;48.736;9.330;2023-02-08T07:34:59;21.83;;;11.73;;
2416;SDS011;1219;48.736;9.330;2023-02-08T07:39:56;17.63;;;12.20;;
2416;SDS011;1219;48.736;9.330;2023-02-08T07:42:22;19.47;;;12.13;;
2416;SDS011;1219;48.736;9.330;2023-02-08T07:44:48;15.23;;;10.97;;
2416;SDS011;1219;48.736;9.330;2023-02-08T07:47:14;16.27;;;11.87;;
2416;SDS011;1219;48.736;9.330;2023-02-08T07:49:41;17.90;;;10.67;;
2416;SDS011;1219;48.736;9.330;2023-02-08T07:52:07;17.87;;;11.20;;
2416;SDS011;1219;48.736;9.330;2023-02-08T07:54:33;20.57;;;12.80;;
2416;SDS011;1219;48.736;9.330;2023-02-08T07:56:59;15.50;;;10.97;;
2416;SDS011;1219;48.736;9.330;2023-02-08T07:59:25;11.57;;;10.00;;
2416;SDS011;1219;48.736;9.330;2023-02-08T08:01:51;15.27;;;10.07;;
2416;SDS011;1219;48.736;9.330;2023-02-08T08:04:16;14.90;;;9.80;;
2416;SDS011;1219;48.736;9.330;2023-02-08T08:06:43;16.33;;;11.23;;
2416;SDS011;1219;48.736;9.330;2023-02-08T08:09:10;16.90;;;10.77;;
2416;SDS011;1219;48.736;9.330;2023-02-08T08:11:36;12.17;;;9.80;;
2416;SDS011;1219;48.736;9.330;2023-02-08T08:14:02;16.27;;;11.53;;
2416;SDS011;1219;48.736;9.330;2023-02-08T08:16:28;17.53;;;10.83;;
2416;SDS011;1219;48.736;9.330;2023-02-08T08:18:54;18.00;;;12.90;;
2416;SDS011;1219;48.736;9.330;2023-02-08T08:21:20;17.80;;;11.57;;
2416;SDS011;1219;48.736;9.330;2023-02-08T08:23:46;18.13;;;12.20;;
2416;SDS011;1219;48.736;9.330;2023-02-08T08:26:13;18.33;;;12.37;;
2416;SDS011;1219;48.736;9.330;2023-02-08T08:28:39;9.30;;;8.40;;
2416;SDS011;1219;48.736;9.330;2023-02-08T08:31:09;15.37;;;12.30;;
2416;SDS011;1219;48.736;9.330;2023-02-08T08:33:35;23.70;;;12.90;;
2416;SDS011;1219;48.736;9.330;2023-02-08T08:36:01;22.20;;;12.30;;
2416;SDS011;1219;48.736;9.330;2023-02-08T08:38:27;21.13;;;13.10;;
2416;SDS011;1219;48.736;9.330;2023-02-08T08:40:53;15.93;;;11.50;;
2416;SDS011;1219;48.736;9.330;2023-02-08T08:43:19;17.63;;;10.63;;
2416;SDS011;1219;48.736;9.330;2023-02-08T08:45:45;17.23;;;10.63;;
2416;SDS011;1219;48.736;9.330;2023-02-08T08:48:11;12.70;;;9.20;;
2416;SDS011;1219;48.736;9.330;2023-02-08T08:50:37;13.67;;;9.20;;
2416;SDS011;1219;48.736;9.330;2023-02-08T08:53:03;15.80;;;11.17;;
2416;SDS011;1219;48.736;9.330;2023-02-08T08:55:29;21.10;;;13.07;;
2416;SDS011;1219;48.736;9.330;2023-02-08T08:57:55;20.83;;;12.30;;
2416;SDS011;1219;48.736;9.330;2023-02-08T09:00:21;19.10;;;12.00;;
2416;SDS011;1219;48.736;9.330;2023-02-08T09:02:47;15.67;;;11.40;;
2416;SDS011;1219;48.736;9.330;2023-02-08T09:05:13;19.17;;;10.83;;
2416;SDS011;1219;48.736;9.330;2023-02-08T09:07:39;11.23;;;9.10;;
2416;SDS011;1219;48.736;9.330;2023-02-08T09:10:05;23.73;;;12.50;;
2416;SDS011;1219;48.736;9.330;2023-02-08T09:12:32;13.43;;;10.90;;
2416;SDS011;1219;48.736;9.330;2023-02-08T09:14:57;18.53;;;9.93;;
2416;SDS011;1219;48.736;9.330;2023-02-08T09:17:23;13.30;;;9.73;;
2416;SDS011;1219;48.736;9.330;2023-02-08T09:19:49;10.40;;;7.57;;
2416;SDS011;1219;48.736;9.330;2023-02-08T09:22:15;14.63;;;9.30;;
2416;SDS011;1219;48.736;9.330;2023-02-08T09:24:42;15.10;;;8.60;;
2416;SDS011;1219;48.736;9.330;2023-02-08T09:27:08;14.13;;;9.90;;
2416;SDS011;1219;48.736;9.330;2023-02-08T09:29:34;11.97;;;9.00;;
2416;SDS011;1219;48.736;9.330;2023-02-08T09:32:00;15.30;;;9.43;;
2416;SDS011;1219;48.736;9.330;2023-02-08T09:34:26;12.37;;;8.07;;
2416;SDS011;1219;48.736;9.330;2023-02-08T09:36:52;13.87;;;8.80;;
2416;SDS011;1219;48.736;9.330;2023-02-08T09:39:20;12.23;;;8.40;;
2416;SDS011;1219;48.736;9.330;2023-02-08T09:44:30;12.87;;;9.17;;
2416;SDS011;1219;48.736;9.330;2023-02-08T09:47:02;10.30;;;8.30;;
2416;SDS011;1219;48.736;9.330;2023-02-08T09:49:35;22.13;;;14.30;;
2416;SDS011;1219;48.736;9.330;2023-02-08T09:52:04;12.00;;;9.00;;
2416;SDS011;1219;48.736;9.330;2023-02-08T09:54:35;13.70;;;9.73;;
2416;SDS011;1219;48.736;9.330;2023-02-08T09:57:03;16.70;;;9.40;;
2416;SDS011;1219;48.736;9.330;2023-02-08T09:59:31;19.50;;;10.07;;
2416;SDS011;1219;48.736;9.330;2023-02-08T10:01:59;12.43;;;8.63;;
2416;SDS011;1219;48.736;9.330;2023-02-08T10:04:29;17.83;;;10.40;;
2416;SDS011;1219;48.736;9.330;2023-02-08T10:06:58;12.43;;;8.70;;
2416;SDS011;1219;48.736;9.330;2023-02-08T10:09:25;14.67;;;9.70;;
2416;SDS011;1219;48.736;9.330;2023-02-08T10:16:59;10.00;;;7.63;;
2416;SDS011;1219;48.736;9.330;2023-02-08T10:27:16;12.23;;;7.53;;
2416;SDS011;1219;48.736;9.330;2023-02-08T10:30:10;17.57;;;10.67;;
2416;SDS011;1219;48.736;9.330;2023-02-08T10:35:30;16.53;;;11.37;;
2416;SDS011;1219;48.736;9.330;2023-02-08T10:38:01;13.93;;;10.23;;
2416;SDS011;1219;48.736;9.330;2023-02-08T10:40:37;13.50;;;9.30;;
2416;SDS011;1219;48.736;9.330;2023-02-08T10:48:45;10.50;;;8.77;;
2416;SDS011;1219;48.736;9.330;2023-02-08T10:51:17;11.90;;;8.43;;
2416;SDS011;1219;48.736;9.330;2023-02-08T10:53:43;14.40;;;8.43;;
2416;SDS011;1219;48.736;9.330;2023-02-08T10:56:53;12.00;;;8.80;;
2416;SDS011;1219;48.736;9.330;2023-02-08T10:58:59;10.03;;;8.20;;
2416;SDS011;1219;48.736;9.330;2023-02-08T11:01:26;14.60;;;10.63;;
2416;SDS011;1219;48.736;9.330;2023-02-08T11:04:00;13.60;;;8.00;;
2416;SDS011;1219;48.736;9.330;2023-02-08T11:06:26;11.20;;;7.80;;
2416;SDS011;1219;48.736;9.330;2023-02-08T11:08:53;15.27;;;9.10;;
2416;SDS011;1219;48.736;9.330;2023-02-08T11:11:20;9.90;;;8.50;;
2416;SDS011;1219;48.736;9.330;2023-02-08T11:13:46;10.10;;;8.37;;
2416;SDS011;1219;48.736;9.330;2023-02-08T11:16:21;8.87;;;7.97;;
2416;SDS011;1219;48.736;9.330;2023-02-08T11:18:49;9.03;;;8.07;;
2416;SDS011;1219;48.736;9.330;2023-02-08T11:21:23;10.07;;;8.53;;
2416;SDS011;1219;48.736;9.330;2023-02-08T11:23:50;9.20;;;8.03;;
2416;SDS011;1219;48.736;9.330;2023-02-08T11:26:38;10.97;;;8.73;;
2416;SDS011;1219;48.736;9.330;2023-02-08T11:29:03;8.27;;;7.30;;
2416;SDS011;1219;48.736;9.330;2023-02-08T11:31:31;11.37;;;8.60;;
2416;SDS011;1219;48.736;9.330;2023-02-08T11:34:04;7.67;;;6.97;;
2416;SDS011;1219;48.736;9.330;2023-02-08T11:36:31;12.60;;;7.47;;
2416;SDS011;1219;48.736;9.330;2023-02-08T11:38:59;10.20;;;7.70;;
2416;SDS011;1219;48.736;9.330;2023-02-08T11:41:25;8.10;;;7.17;;
2416;SDS011;1219;48.736;9.330;2023-02-08T11:43:59;8.47;;;7.30;;
2416;SDS011;1219;48.736;9.330;2023-02-08T11:46:26;10.10;;;8.00;;
2416;SDS011;1219;48.736;9.330;2023-02-08T11:48:53;10.50;;;8.30;;
2416;SDS011;1219;48.736;9.330;2023-02-08T11:53:54;8.77;;;7.73;;
2416;SDS011;1219;48.736;9.330;2023-02-08T11:56:22;9.73;;;7.00;;
2416;SDS011;1219;48.736;9.330;2023-02-08T12:01:28;9.97;;;6.80;;
2416;SDS011;1219;48.736;9.330;2023-02-08T12:03:54;12.17;;;8.60;;
2416;SDS011;1219;48.736;9.330;2023-02-08T12:09:08;8.93;;;7.20;;
2416;SDS011;1219;48.736;9.330;2023-02-08T12:11:43;10.37;;;6.90;;
2416;SDS011;1219;48.736;9.330;2023-02-08T12:16:57;8.67;;;7.50;;
2416;SDS011;1219;48.736;9.330;2023-02-08T12:22:19;8.10;;;7.30;;
2416;SDS011;1219;48.736;9.330;2023-02-08T12:24:49;8.60;;;7.50;;
2416;SDS011;1219;48.736;9.330;2023-02-08T12:27:37;8.20;;;6.47;;
2416;SDS011;1219;48.736;9.330;2023-02-08T12:30:08;10.67;;;7.97;;
2416;SDS011;1219;48.736;9.330;2023-02-08T12:32:56;8.23;;;7.00;;
2416;SDS011;1219;48.736;9.330;2023-02-08T12:37:53;11.30;;;7.87;;
2416;SDS011;1219;48.736;9.330;2023-02-08T12:43:24;11.10;;;6.60;;
2416;SDS011;1219;48.736;9.330;2023-02-08T12:48:39;8.73;;;7.87;;
2416;SDS011;1219;48.736;9.330;2023-02-08T12:53:53;9.40;;;7.40;;
2416;SDS011;1219;48.736;9.330;2023-02-08T12:56:21;8.47;;;7.07;;
2416;SDS011;1219;48.736;9.330;2023-02-08T12:58:49;11.60;;;7.57;;
2416;SDS011;1219;48.736;9.330;2023-02-08T13:01:27;8.50;;;6.90;;
2416;SDS011;1219;48.736;9.330;2023-02-08T13:06:32;9.97;;;7.40;;
2416;SDS011;1219;48.736;9.330;2023-02-08T13:09:05;9.43;;;7.43;;
2416;SDS011;1219;48.736;9.330;2023-02-08T13:11:42;9.57;;;7.60;;
2416;SDS011;1219;48.736;9.330;2023-02-08T13:14:11;10.20;;;8.50;;
2416;SDS011;1219;48.736;9.330;2023-02-08T13:16:40;8.93;;;6.77;;
2416;SDS011;1219;48.736;9.330;2023-02-08T13:19:20;8.47;;;6.60;;
2416;SDS011;1219;48.736;9.330;2023-02-08T13:21:48;9.50;;;7.03;;
2416;SDS011;1219;48.736;9.330;2023-02-08T13:24:27;8.87;;;6.70;;
2416;SDS011;1219;48.736;9.330;2023-02-08T13:26:54;11.33;;;7.80;;
2416;SDS011;1219;48.736;9.330;2023-02-08T13:29:21;11.33;;;8.50;;
2416;SDS011;1219;48.736;9.330;2023-02-08T13:31:49;7.83;;;7.00;;
2416;SDS011;1219;48.736;9.330;2023-02-08T13:36:49;8.60;;;7.50;;
2416;SDS011;1219;48.736;9.330;2023-02-08T13:39:31;11.13;;;6.20;;
2416;SDS011;1219;48.736;9.330;2023-02-08T13:41:58;11.00;;;8.60;;
2416;SDS011;1219;48.736;9.330;2023-02-08T13:44:32;9.50;;;7.20;;
2416;SDS011;1219;48.736;9.330;2023-02-08T13:46:58;12.17;;;8.07;;
2416;SDS011;1219;48.736;9.330;2023-02-08T13:49:40;10.00;;;8.53;;
2416;SDS011;1219;48.736;9.330;2023-02-08T13:52:06;11.30;;;8.40;;
2416;SDS011;1219;48.736;9.330;2023-02-08T13:54:32;14.30;;;10.57;;
2416;SDS011;1219;48.736;9.330;2023-02-08T13:56:58;10.03;;;8.47;;
2416;SDS011;1219;48.736;9.330;2023-02-08T14:02:17;10.40;;;9.30;;
2416;SDS011;1219;48.736;9.330;2023-02-08T14:04:44;10.87;;;9.10;;
2416;SDS011;1219;48.736;9.330;2023-02-08T14:12:10;11.37;;;9.00;;
2416;SDS011;1219;48.736;9.330;2023-02-08T14:14:38;12.63;;;9.67;;
2416;SDS011;1219;48.736;9.330;2023-02-08T14:17:25;10.43;;;9.23;;
2416;SDS011;1219;48.736;9.330;2023-02-08T14:19:57;8.97;;;6.97;;
2416;SDS011;1219;48.736;9.330;2023-02-08T14:22:24;14.50;;;12.03;;
2416;SDS011;1219;48.736;9.330;2023-02-08T14:25:14;15.50;;;9.93;;
2416;SDS011;1219;48.736;9.330;2023-02-08T14:27:42;14.57;;;10.87;;
2416;SDS011;1219;48.736;9.330;2023-02-08T14:32:46;11.80;;;10.13;;
2416;SDS011;1219;48.736;9.330;2023-02-08T14:35:17;13.30;;;9.03;;
2416;SDS011;1219;48.736;9.330;2023-02-08T14:37:44;13.10;;;9.80;;
2416;SDS011;1219;48.736;9.330;2023-02-08T14:42:59;12.60;;;10.50;;
2416;SDS011;1219;48.736;9.330;2023-02-08T14:45:32;12.63;;;10.17;;
2416;SDS011;1219;48.736;9.330;2023-02-08T14:50:29;17.50;;;10.43;;
2416;SDS011;1219;48.736;9.330;2023-02-08T14:55:31;13.50;;;10.30;;
2416;SDS011;1219;48.736;9.330;2023-02-08T14:57:58;16.47;;;9.53;;
2416;SDS011;1219;48.736;9.330;2023-02-08T15:00:27;12.07;;;10.83;;
2416;SDS011;1219;48.736;9.330;2023-02-08T15:02:53;18.10;;;12.40;;
2416;SDS011;1219;48.736;9.330;2023-02-08T15:05:21;14.73;;;11.40;;
2416;SDS011;1219;48.736;9.330;2023-02-08T15:07:51;12.93;;;10.53;;
2416;SDS011;1219;48.736;9.330;2023-02-08T15:10:18;16.90;;;10.87;;
2416;SDS011;1219;48.736;9.330;2023-02-08T15:12:46;15.90;;;10.73;;
2416;SDS011;1219;48.736;9.330;2023-02-08T15:15:27;16.00;;;11.13;;
2416;SDS011;1219;48.736;9.330;2023-02-08T15:17:54;13.60;;;10.33;;
2416;SDS011;1219;48.736;9.330;2023-02-08T15:20:21;15.73;;;10.10;;
2416;SDS011;1219;48.736;9.330;2023-02-08T15:22:48;18.67;;;12.53;;
2416;SDS011;1219;48.736;9.330;2023-02-08T15:25:23;15.17;;;10.70;;
2416;SDS011;1219;48.736;9.330;2023-02-08T15:27:51;19.50;;;11.60;;
2416;SDS011;1219;48.736;9.330;2023-02-08T15:32:47;13.77;;;10.63;;
2416;SDS011;1219;48.736;9.330;2023-02-08T15:35:14;15.00;;;10.30;;
2416;SDS011;1219;48.736;9.330;2023-02-08T15:37:42;12.00;;;10.63;;
2416;SDS011;1219;48.736;9.330;2023-02-08T15:40:20;15.43;;;9.40;;
2416;SDS011;1219;48.736;9.330;2023-02-08T15:42:46;18.70;;;11.43;;
2416;SDS011;1219;48.736;9.330;2023-02-08T15:45:26;14.83;;;11.67;;
2416;SDS011;1219;48.736;9.330;2023-02-08T15:47:55;16.30;;;10.20;;
2416;SDS011;1219;48.736;9.330;2023-02-08T15:50:22;12.97;;;10.50;;
2416;SDS011;1219;48.736;9.330;2023-02-08T15:52:50;16.70;;;9.93;;
2416;SDS011;1219;48.736;9.330;2023-02-08T15:55:18;13.93;;;10.43;;
2416;SDS011;1219;48.736;9.330;2023-02-08T15:57:53;19.47;;;12.30;;
2416;SDS011;1219;48.736;9.330;2023-02-08T16:00:22;16.77;;;10.40;;
2416;SDS011;1219;48.736;9.330;2023-02-08T16:02:49;13.83;;;10.47;;
2416;SDS011;1219;48.736;9.330;2023-02-08T16:05:21;15.30;;;11.93;;
2416;SDS011;1219;48.736;9.330;2023-02-08T16:07:48;11.43;;;10.37;;
2416;SDS011;1219;48.736;9.330;2023-02-08T16:10:20;15.40;;;11.37;;
2416;SDS011;1219;48.736;9.330;2023-02-08T16:12:50;14.23;;;11.20;;
2416;SDS011;1219;48.736;9.330;2023-02-08T16:18:02;19.80;;;11.73;;
2416;SDS011;1219;48.736;9.330;2023-02-08T16:20:29;18.13;;;11.77;;
2416;SDS011;1219;48.736;9.330;2023-02-08T16:22:59;15.87;;;11.50;;
2416;SDS011;1219;48.736;9.330;2023-02-08T16:27:58;16.73;;;11.63;;
2416;SDS011;1219;48.736;9.330;2023-02-08T16:30:24;14.70;;;12.00;;
2416;SDS011;1219;48.736;9.330;2023-02-08T16:32:50;15.93;;;12.20;;
2416;SDS011;1219;48.736;9.330;2023-02-08T16:35:26;20.00;;;12.07;;
2416;SDS011;1219;48.736;9.330;2023-02-08T16:37:55;14.43;;;10.67;;
2416;SDS011;1219;48.736;9.330;2023-02-08T16:40:39;23.83;;;16.50;;
2416;SDS011;1219;48.736;9.330;2023-02-08T16:48:41;22.43;;;14.03;;
2416;SDS011;1219;48.736;9.330;2023-02-08T16:51:26;20.40;;;16.40;;
2416;SDS011;1219;48.736;9.330;2023-02-08T16:53:54;18.27;;;12.80;;
2416;SDS011;1219;48.736;9.330;2023-02-08T16:56:20;20.03;;;13.83;;
2416;SDS011;1219;48.736;9.330;2023-02-08T16:58:47;18.10;;;11.73;;
2416;SDS011;1219;48.736;9.330;2023-02-08T17:01:13;20.40;;;14.00;;
2416;SDS011;1219;48.736;9.330;2023-02-08T17:03:39;17.60;;;11.73;;
2416;SDS011;1219;48.736;9.330;2023-02-08T17:06:06;14.10;;;12.50;;
2416;SDS011;1219;48.736;9.330;2023-02-08T17:08:32;21.60;;;14.90;;
2416;SDS011;1219;48.736;9.330;2023-02-08T17:10:59;22.50;;;15.60;;
2416;SDS011;1219;48.736;9.330;2023-02-08T17:13:26;22.90;;;14.20;;
2416;SDS011;1219;48.736;9.330;2023-02-08T17:15:52;36.30;;;21.23;;